sensor_id;sensor_type;location;lat;lon;timestamp;pressure;altitude;pressure_sealevel;temperature;humidity
62928;BME280;51070;52.236;-0.892;2024-02-14T00:01:55;99996.87;;;10.39;100.00
62928;BME280;51070;52.236;-0.892;2024-02-14T00:04:20;99996.39;;;10.41;100.00
62928;BME280;51070;52.236;-0.892;2024-02-14T00:06:46;99998.30;;;10.41;100.00
62928;BME280;51070;52.236;-0.892;2024-02-14T00:09:12;100000.71;;;10.41;100.00
62928;BME280;51070;52.236;-0.892;2024-02-14T00:11:37;100006.75;;;10.41;100.00
62928;BME280;51070;52.236;-0.892;2024-02-14T00:14:03;100013.33;;;10.41;100.00
62928;BME280;51070;52.236;-0.892;2024-02-14T00:16:29;100009.55;;;10.43;100.00
62928;BME280;51070;52.236;-0.892;2024-02-14T00:18:57;100008.39;;;10.45;100.00
62928;BME280;51070;52.236;-0.892;2024-02-14T00:21:23;100008.09;;;10.47;100.00
62928;BME280;51070;52.236;-0.892;2024-02-14T00:23:50;100009.34;;;10.50;100.00
62928;BME280;51070;52.236;-0.892;2024-02-14T00:26:15;100011.83;;;10.52;100.00
62928;BME280;51070;52.236;-0.892;2024-02-14T00:28:41;100015.30;;;10.54;100.00
62928;BME280;51070;52.236;-0.892;2024-02-14T00:31:06;100012.94;;;10.56;100.00
62928;BME280;51070;52.236;-0.892;2024-02-14T00:33:32;100013.85;;;10.58;100.00
62928;BME280;51070;52.236;-0.892;2024-02-14T00:35:57;100016.46;;;10.60;100.00
62928;BME280;51070;52.236;-0.892;2024-02-14T00:38:22;100013.58;;;10.61;100.00
62928;BME280;51070;52.236;-0.892;2024-02-14T00:40:48;100014.29;;;10.62;100.00
62928;BME280;51070;52.236;-0.892;2024-02-14T00:43:13;100017.95;;;10.64;100.00
62928;BME280;51070;52.236;-0.892;2024-02-14T00:45:39;100020.89;;;10.65;100.00
62928;BME280;51070;52.236;-0.892;2024-02-14T00:48:05;100026.96;;;10.66;100.00
62928;BME280;51070;52.236;-0.892;2024-02-14T00:50:32;100030.78;;;10.66;100.00
62928;BME280;51070;52.236;-0.892;2024-02-14T00:52:59;100028.73;;;10.68;100.00
62928;BME280;51070;52.236;-0.892;2024-02-14T00:55:24;100025.13;;;10.68;100.00
62928;BME280;51070;52.236;-0.892;2024-02-14T00:57:50;100027.56;;;10.69;100.00
62928;BME280;51070;52.236;-0.892;2024-02-14T01:00:16;100028.08;;;10.69;100.00
62928;BME280;51070;52.236;-0.892;2024-02-14T01:02:43;100030.84;;;10.69;100.00
62928;BME280;51070;52.236;-0.892;2024-02-14T01:05:09;100033.07;;;10.68;100.00
62928;BME280;51070;52.236;-0.892;2024-02-14T01:07:35;100035.29;;;10.67;100.00
62928;BME280;51070;52.236;-0.892;2024-02-14T01:10:00;100034.90;;;10.66;100.00
62928;BME280;51070;52.236;-0.892;2024-02-14T01:12:26;100035.74;;;10.64;100.00
62928;BME280;51070;52.236;-0.892;2024-02-14T01:14:51;100041.41;;;10.62;100.00
62928;BME280;51070;52.236;-0.892;2024-02-14T01:17:17;100039.84;;;10.62;100.00
62928;BME280;51070;52.236;-0.892;2024-02-14T01:19:42;100036.55;;;10.62;100.00
62928;BME280;51070;52.236;-0.892;2024-02-14T01:22:09;100030.51;;;10.62;100.00
62928;BME280;51070;52.236;-0.892;2024-02-14T01:24:34;100043.29;;;10.61;100.00
62928;BME280;51070;52.236;-0.892;2024-02-14T01:27:00;100046.08;;;10.62;100.00
62928;BME280;51070;52.236;-0.892;2024-02-14T01:29:25;100043.80;;;10.61;100.00
62928;BME280;51070;52.236;-0.892;2024-02-14T01:31:51;100041.38;;;10.61;100.00
62928;BME280;51070;52.236;-0.892;2024-02-14T01:34:16;100045.34;;;10.61;100.00
62928;BME280;51070;52.236;-0.892;2024-02-14T01:36:42;100043.80;;;10.61;100.00
62928;BME280;51070;52.236;-0.892;2024-02-14T01:39:07;100041.72;;;10.61;100.00
62928;BME280;51070;52.236;-0.892;2024-02-14T01:41:46;100044.15;;;10.61;100.00
62928;BME280;51070;52.236;-0.892;2024-02-14T01:44:17;100043.63;;;10.61;100.00
62928;BME280;51070;52.236;-0.892;2024-02-14T01:46:44;100049.83;;;10.60;100.00
62928;BME280;51070;52.236;-0.892;2024-02-14T01:49:11;100052.40;;;10.60;100.00
62928;BME280;51070;52.236;-0.892;2024-02-14T01:51:40;100058.80;;;10.60;100.00
62928;BME280;51070;52.236;-0.892;2024-02-14T01:54:11;100058.11;;;10.60;100.00
62928;BME280;51070;52.236;-0.892;2024-02-14T01:56:37;100053.80;;;10.61;100.00
62928;BME280;51070;52.236;-0.892;2024-02-14T01:59:03;100055.03;;;10.61;100.00
62928;BME280;51070;52.236;-0.892;2024-02-14T02:01:31;100051.41;;;10.62;100.00
62928;BME280;51070;52.236;-0.892;2024-02-14T02:03:57;100042.80;;;10.62;100.00
62928;BME280;51070;52.236;-0.892;2024-02-14T02:06:24;100039.34;;;10.62;100.00
62928;BME280;51070;52.236;-0.892;2024-02-14T02:08:49;100043.14;;;10.62;100.00
62928;BME280;51070;52.236;-0.892;2024-02-14T02:11:15;100043.66;;;10.62;100.00
62928;BME280;51070;52.236;-0.892;2024-02-14T02:13:40;100038.66;;;10.63;100.00
62928;BME280;51070;52.236;-0.892;2024-02-14T02:16:06;100043.85;;;10.64;100.00
62928;BME280;51070;52.236;-0.892;2024-02-14T02:18:32;100043.85;;;10.64;100.00
62928;BME280;51070;52.236;-0.892;2024-02-14T02:20:57;100049.38;;;10.64;100.00
62928;BME280;51070;52.236;-0.892;2024-02-14T02:23:23;100046.27;;;10.64;100.00
62928;BME280;51070;52.236;-0.892;2024-02-14T02:25:49;100043.84;;;10.64;100.00
62928;BME280;51070;52.236;-0.892;2024-02-14T02:28:16;100049.56;;;10.65;100.00
62928;BME280;51070;52.236;-0.892;2024-02-14T02:30:42;100047.84;;;10.65;100.00
62928;BME280;51070;52.236;-0.892;2024-02-14T02:33:07;100049.08;;;10.66;100.00
62928;BME280;51070;52.236;-0.892;2024-02-14T02:35:33;100057.55;;;10.66;100.00
62928;BME280;51070;52.236;-0.892;2024-02-14T02:38:00;100053.41;;;10.66;100.00
62928;BME280;51070;52.236;-0.892;2024-02-14T02:40:25;100054.45;;;10.67;100.00
62928;BME280;51070;52.236;-0.892;2024-02-14T02:42:53;100058.95;;;10.66;100.00
62928;BME280;51070;52.236;-0.892;2024-02-14T02:45:18;100055.52;;;10.67;100.00
62928;BME280;51070;52.236;-0.892;2024-02-14T02:47:44;100050.34;;;10.68;100.00
62928;BME280;51070;52.236;-0.892;2024-02-14T02:50:10;100048.96;;;10.68;100.00
62928;BME280;51070;52.236;-0.892;2024-02-14T02:52:35;100049.49;;;10.68;100.00
62928;BME280;51070;52.236;-0.892;2024-02-14T02:55:00;100050.36;;;10.68;100.00
62928;BME280;51070;52.236;-0.892;2024-02-14T02:57:28;100049.50;;;10.69;100.00
62928;BME280;51070;52.236;-0.892;2024-02-14T02:59:54;100048.30;;;10.70;100.00
62928;BME280;51070;52.236;-0.892;2024-02-14T03:02:20;100049.02;;;10.71;100.00
62928;BME280;51070;52.236;-0.892;2024-02-14T03:04:46;100048.52;;;10.71;100.00
62928;BME280;51070;52.236;-0.892;2024-02-14T03:07:12;100045.40;;;10.72;100.00
62928;BME280;51070;52.236;-0.892;2024-02-14T03:09:38;100038.81;;;10.71;100.00
62928;BME280;51070;52.236;-0.892;2024-02-14T03:12:04;100038.46;;;10.70;100.00
62928;BME280;51070;52.236;-0.892;2024-02-14T03:14:31;100034.13;;;10.69;100.00
62928;BME280;51070;52.236;-0.892;2024-02-14T03:17:02;100030.11;;;10.67;100.00
62928;BME280;51070;52.236;-0.892;2024-02-14T03:19:28;100027.84;;;10.66;100.00
62928;BME280;51070;52.236;-0.892;2024-02-14T03:21:57;100025.06;;;10.66;100.00
62928;BME280;51070;52.236;-0.892;2024-02-14T03:24:25;100025.76;;;10.66;100.00
62928;BME280;51070;52.236;-0.892;2024-02-14T03:26:51;100024.02;;;10.66;100.00
62928;BME280;51070;52.236;-0.892;2024-02-14T03:29:17;100022.12;;;10.66;100.00
62928;BME280;51070;52.236;-0.892;2024-02-14T03:31:42;100029.91;;;10.66;100.00
62928;BME280;51070;52.236;-0.892;2024-02-14T03:34:09;100031.13;;;10.67;100.00
62928;BME280;51070;52.236;-0.892;2024-02-14T03:36:38;100027.52;;;10.68;100.00
62928;BME280;51070;52.236;-0.892;2024-02-14T03:39:04;100021.67;;;10.68;100.00
62928;BME280;51070;52.236;-0.892;2024-02-14T03:41:31;100026.52;;;10.70;100.00
62928;BME280;51070;52.236;-0.892;2024-02-14T03:43:56;100024.48;;;10.71;100.00
62928;BME280;51070;52.236;-0.892;2024-02-14T03:46:27;100020.52;;;10.72;100.00
62928;BME280;51070;52.236;-0.892;2024-02-14T03:48:53;100025.38;;;10.72;100.00
62928;BME280;51070;52.236;-0.892;2024-02-14T03:51:19;100029.36;;;10.73;100.00
62928;BME280;51070;52.236;-0.892;2024-02-14T03:53:45;100026.45;;;10.74;100.00
62928;BME280;51070;52.236;-0.892;2024-02-14T03:56:10;100022.30;;;10.75;100.00
62928;BME280;51070;52.236;-0.892;2024-02-14T03:58:38;100019.04;;;10.75;100.00
62928;BME280;51070;52.236;-0.892;2024-02-14T04:01:04;100020.77;;;10.75;100.00
62928;BME280;51070;52.236;-0.892;2024-02-14T04:03:30;100017.49;;;10.76;100.00
62928;BME280;51070;52.236;-0.892;2024-02-14T04:05:55;100016.13;;;10.77;100.00
62928;BME280;51070;52.236;-0.892;2024-02-14T04:08:21;100017.54;;;10.78;100.00
62928;BME280;51070;52.236;-0.892;2024-02-14T04:10:47;100022.73;;;10.78;100.00
62928;BME280;51070;52.236;-0.892;2024-02-14T04:13:15;100026.38;;;10.79;100.00
62928;BME280;51070;52.236;-0.892;2024-02-14T04:15:41;100030.19;;;10.80;100.00
62928;BME280;51070;52.236;-0.892;2024-02-14T04:18:08;100029.02;;;10.82;100.00
62928;BME280;51070;52.236;-0.892;2024-02-14T04:20:34;100023.00;;;10.83;100.00
62928;BME280;51070;52.236;-0.892;2024-02-14T04:23:00;100012.33;;;10.85;100.00
62928;BME280;51070;52.236;-0.892;2024-02-14T04:25:25;100009.39;;;10.86;100.00
62928;BME280;51070;52.236;-0.892;2024-02-14T04:27:51;100014.05;;;10.86;100.00
62928;BME280;51070;52.236;-0.892;2024-02-14T04:30:16;100013.55;;;10.86;100.00
62928;BME280;51070;52.236;-0.892;2024-02-14T04:32:42;100014.23;;;10.86;100.00
62928;BME280;51070;52.236;-0.892;2024-02-14T04:35:09;100017.69;;;10.86;100.00
62928;BME280;51070;52.236;-0.892;2024-02-14T04:37:35;100020.81;;;10.86;100.00
62928;BME280;51070;52.236;-0.892;2024-02-14T04:40:01;100024.65;;;10.88;100.00
62928;BME280;51070;52.236;-0.892;2024-02-14T04:42:29;100022.43;;;10.89;100.00
62928;BME280;51070;52.236;-0.892;2024-02-14T04:44:55;100018.13;;;10.90;100.00
62928;BME280;51070;52.236;-0.892;2024-02-14T04:47:20;100017.61;;;10.91;100.00
62928;BME280;51070;52.236;-0.892;2024-02-14T04:49:46;100021.64;;;10.92;100.00
62928;BME280;51070;52.236;-0.892;2024-02-14T04:52:11;100021.51;;;10.94;100.00
62928;BME280;51070;52.236;-0.892;2024-02-14T04:54:36;100022.55;;;10.96;100.00
62928;BME280;51070;52.236;-0.892;2024-02-14T04:57:02;100018.44;;;10.98;100.00
62928;BME280;51070;52.236;-0.892;2024-02-14T04:59:29;100025.54;;;10.98;100.00
62928;BME280;51070;52.236;-0.892;2024-02-14T05:01:54;100028.37;;;11.01;100.00
62928;BME280;51070;52.236;-0.892;2024-02-14T05:04:21;100028.03;;;11.02;100.00
62928;BME280;51070;52.236;-0.892;2024-02-14T05:06:48;100028.38;;;11.03;100.00
62928;BME280;51070;52.236;-0.892;2024-02-14T05:09:13;100036.37;;;11.04;100.00
62928;BME280;51070;52.236;-0.892;2024-02-14T05:11:40;100028.61;;;11.04;100.00
62928;BME280;51070;52.236;-0.892;2024-02-14T05:14:05;100034.67;;;11.05;100.00
62928;BME280;51070;52.236;-0.892;2024-02-14T05:16:31;100036.95;;;11.06;100.00
62928;BME280;51070;52.236;-0.892;2024-02-14T05:18:56;100034.02;;;11.08;100.00
62928;BME280;51070;52.236;-0.892;2024-02-14T05:21:22;100048.39;;;11.09;100.00
62928;BME280;51070;52.236;-0.892;2024-02-14T05:23:48;100050.47;;;11.09;100.00
62928;BME280;51070;52.236;-0.892;2024-02-14T05:26:13;100049.60;;;11.08;100.00
62928;BME280;51070;52.236;-0.892;2024-02-14T05:28:39;100046.84;;;11.09;100.00
62928;BME280;51070;52.236;-0.892;2024-02-14T05:31:05;100042.36;;;11.10;100.00
62928;BME280;51070;52.236;-0.892;2024-02-14T05:33:30;100046.71;;;11.11;100.00
62928;BME280;51070;52.236;-0.892;2024-02-14T05:35:55;100049.30;;;11.11;100.00
62928;BME280;51070;52.236;-0.892;2024-02-14T05:38:21;100057.80;;;11.11;100.00
62928;BME280;51070;52.236;-0.892;2024-02-14T05:40:48;100058.83;;;11.11;100.00
62928;BME280;51070;52.236;-0.892;2024-02-14T05:43:14;100061.08;;;11.12;100.00
62928;BME280;51070;52.236;-0.892;2024-02-14T05:45:40;100064.55;;;11.13;100.00
62928;BME280;51070;52.236;-0.892;2024-02-14T05:48:07;100064.05;;;11.13;100.00
62928;BME280;51070;52.236;-0.892;2024-02-14T05:50:33;100065.61;;;11.14;100.00
62928;BME280;51070;52.236;-0.892;2024-02-14T05:52:59;100063.39;;;11.15;100.00
62928;BME280;51070;52.236;-0.892;2024-02-14T05:55:25;100061.86;;;11.16;100.00
62928;BME280;51070;52.236;-0.892;2024-02-14T05:57:52;100061.35;;;11.16;100.00
62928;BME280;51070;52.236;-0.892;2024-02-14T06:00:18;100061.20;;;11.17;100.00
62928;BME280;51070;52.236;-0.892;2024-02-14T06:02:46;100058.60;;;11.18;100.00
62928;BME280;51070;52.236;-0.892;2024-02-14T06:05:13;100054.27;;;11.18;100.00
62928;BME280;51070;52.236;-0.892;2024-02-14T06:07:38;100056.71;;;11.19;100.00
62928;BME280;51070;52.236;-0.892;2024-02-14T06:10:05;100060.16;;;11.19;100.00
62928;BME280;51070;52.236;-0.892;2024-02-14T06:12:32;100054.14;;;11.19;100.00
62928;BME280;51070;52.236;-0.892;2024-02-14T06:14:58;100054.30;;;11.19;100.00
62928;BME280;51070;52.236;-0.892;2024-02-14T06:17:23;100059.48;;;11.19;100.00
62928;BME280;51070;52.236;-0.892;2024-02-14T06:19:48;100063.46;;;11.19;100.00
62928;BME280;51070;52.236;-0.892;2024-02-14T06:22:14;100059.50;;;11.20;100.00
62928;BME280;51070;52.236;-0.892;2024-02-14T06:24:39;100056.05;;;11.20;100.00
62928;BME280;51070;52.236;-0.892;2024-02-14T06:27:05;100060.90;;;11.21;100.00
62928;BME280;51070;52.236;-0.892;2024-02-14T06:29:31;100060.92;;;11.21;100.00
62928;BME280;51070;52.236;-0.892;2024-02-14T06:31:57;100061.46;;;11.22;100.00
62928;BME280;51070;52.236;-0.892;2024-02-14T06:34:22;100056.25;;;11.21;100.00
62928;BME280;51070;52.236;-0.892;2024-02-14T06:36:47;100047.77;;;11.21;100.00
62928;BME280;51070;52.236;-0.892;2024-02-14T06:39:13;100045.85;;;11.20;100.00
62928;BME280;51070;52.236;-0.892;2024-02-14T06:41:38;100057.45;;;11.20;100.00
62928;BME280;51070;52.236;-0.892;2024-02-14T06:44:05;100064.02;;;11.20;100.00
62928;BME280;51070;52.236;-0.892;2024-02-14T06:46:31;100060.02;;;11.20;100.00
62928;BME280;51070;52.236;-0.892;2024-02-14T06:48:56;100058.29;;;11.19;100.00
62928;BME280;51070;52.236;-0.892;2024-02-14T06:51:23;100065.55;;;11.19;100.00
62928;BME280;51070;52.236;-0.892;2024-02-14T06:53:49;100070.57;;;11.20;100.00
62928;BME280;51070;52.236;-0.892;2024-02-14T06:56:15;100070.42;;;11.20;100.00
62928;BME280;51070;52.236;-0.892;2024-02-14T06:58:41;100069.20;;;11.20;100.00
62928;BME280;51070;52.236;-0.892;2024-02-14T07:01:06;100070.61;;;11.21;100.00
62928;BME280;51070;52.236;-0.892;2024-02-14T07:03:32;100071.66;;;11.21;100.00
62928;BME280;51070;52.236;-0.892;2024-02-14T07:05:59;100078.92;;;11.22;100.00
62928;BME280;51070;52.236;-0.892;2024-02-14T07:08:24;100078.92;;;11.21;100.00
62928;BME280;51070;52.236;-0.892;2024-02-14T07:10:54;100068.89;;;11.22;100.00
62928;BME280;51070;52.236;-0.892;2024-02-14T07:13:20;100072.01;;;11.22;100.00
62928;BME280;51070;52.236;-0.892;2024-02-14T07:15:46;100078.07;;;11.22;100.00
62928;BME280;51070;52.236;-0.892;2024-02-14T07:18:12;100082.40;;;11.24;100.00
62928;BME280;51070;52.236;-0.892;2024-02-14T07:20:37;100079.84;;;11.25;100.00
62928;BME280;51070;52.236;-0.892;2024-02-14T07:23:04;100075.21;;;11.26;100.00
62928;BME280;51070;52.236;-0.892;2024-02-14T07:25:30;100079.39;;;11.28;100.00
62928;BME280;51070;52.236;-0.892;2024-02-14T07:27:56;100082.86;;;11.30;100.00
62928;BME280;51070;52.236;-0.892;2024-02-14T07:30:22;100083.41;;;11.31;100.00
62928;BME280;51070;52.236;-0.892;2024-02-14T07:32:47;100084.51;;;11.33;100.00
62928;BME280;51070;52.236;-0.892;2024-02-14T07:35:13;100085.36;;;11.33;100.00
62928;BME280;51070;52.236;-0.892;2024-02-14T07:37:39;100083.99;;;11.33;100.00
62928;BME280;51070;52.236;-0.892;2024-02-14T07:40:05;100090.23;;;11.35;100.00
62928;BME280;51070;52.236;-0.892;2024-02-14T07:42:31;100081.61;;;11.36;100.00
62928;BME280;51070;52.236;-0.892;2024-02-14T07:44:57;100084.76;;;11.38;100.00
62928;BME280;51070;52.236;-0.892;2024-02-14T07:47:22;100086.69;;;11.40;100.00
62928;BME280;51070;52.236;-0.892;2024-02-14T07:49:48;100090.53;;;11.42;100.00
62928;BME280;51070;52.236;-0.892;2024-02-14T07:52:13;100098.70;;;11.44;100.00
62928;BME280;51070;52.236;-0.892;2024-02-14T07:54:39;100098.90;;;11.45;100.00
62928;BME280;51070;52.236;-0.892;2024-02-14T07:57:04;100093.77;;;11.47;100.00
62928;BME280;51070;52.236;-0.892;2024-02-14T07:59:30;100084.28;;;11.49;100.00
62928;BME280;51070;52.236;-0.892;2024-02-14T08:01:55;100089.16;;;11.51;100.00
62928;BME280;51070;52.236;-0.892;2024-02-14T08:04:23;100084.69;;;11.53;100.00
62928;BME280;51070;52.236;-0.892;2024-02-14T08:06:48;100084.02;;;11.54;100.00
62928;BME280;51070;52.236;-0.892;2024-02-14T08:09:14;100085.95;;;11.55;100.00
62928;BME280;51070;52.236;-0.892;2024-02-14T08:11:40;100086.64;;;11.56;100.00
62928;BME280;51070;52.236;-0.892;2024-02-14T08:14:06;100078.01;;;11.57;100.00
62928;BME280;51070;52.236;-0.892;2024-02-14T08:16:32;100078.90;;;11.58;100.00
62928;BME280;51070;52.236;-0.892;2024-02-14T08:18:57;100082.05;;;11.59;100.00
62928;BME280;51070;52.236;-0.892;2024-02-14T08:21:25;100084.66;;;11.61;100.00
62928;BME280;51070;52.236;-0.892;2024-02-14T08:23:52;100089.52;;;11.62;100.00
62928;BME280;51070;52.236;-0.892;2024-02-14T08:26:18;100094.25;;;11.64;100.00
62928;BME280;51070;52.236;-0.892;2024-02-14T08:28:43;100085.79;;;11.66;100.00
62928;BME280;51070;52.236;-0.892;2024-02-14T08:31:12;100083.06;;;11.68;100.00
62928;BME280;51070;52.236;-0.892;2024-02-14T08:33:37;100087.42;;;11.70;100.00
62928;BME280;51070;52.236;-0.892;2024-02-14T08:36:04;100091.25;;;11.71;100.00
62928;BME280;51070;52.236;-0.892;2024-02-14T08:38:29;100094.23;;;11.73;100.00
62928;BME280;51070;52.236;-0.892;2024-02-14T08:40:55;100092.23;;;11.76;100.00
62928;BME280;51070;52.236;-0.892;2024-02-14T08:43:22;100090.19;;;11.79;100.00
62928;BME280;51070;52.236;-0.892;2024-02-14T08:45:49;100095.60;;;11.81;100.00
62928;BME280;51070;52.236;-0.892;2024-02-14T08:48:17;100102.73;;;11.83;100.00
62928;BME280;51070;52.236;-0.892;2024-02-14T08:50:43;100104.38;;;11.87;100.00
62928;BME280;51070;52.236;-0.892;2024-02-14T08:53:08;100097.98;;;11.88;100.00
62928;BME280;51070;52.236;-0.892;2024-02-14T08:55:35;100101.66;;;11.91;100.00
62928;BME280;51070;52.236;-0.892;2024-02-14T08:58:01;100102.95;;;11.96;100.00
62928;BME280;51070;52.236;-0.892;2024-02-14T09:00:27;100108.21;;;12.00;100.00
62928;BME280;51070;52.236;-0.892;2024-02-14T09:02:52;100101.69;;;12.02;100.00
62928;BME280;51070;52.236;-0.892;2024-02-14T09:05:18;100109.16;;;12.05;100.00
62928;BME280;51070;52.236;-0.892;2024-02-14T09:07:44;100106.16;;;12.11;100.00
62928;BME280;51070;52.236;-0.892;2024-02-14T09:10:10;100102.50;;;12.21;100.00
62928;BME280;51070;52.236;-0.892;2024-02-14T09:12:38;100103.94;;;12.35;100.00
62928;BME280;51070;52.236;-0.892;2024-02-14T09:15:07;100102.12;;;12.52;100.00
62928;BME280;51070;52.236;-0.892;2024-02-14T09:17:33;100106.77;;;12.62;100.00
62928;BME280;51070;52.236;-0.892;2024-02-14T09:19:58;100112.19;;;12.66;100.00
62928;BME280;51070;52.236;-0.892;2024-02-14T09:22:24;100109.09;;;12.68;100.00
62928;BME280;51070;52.236;-0.892;2024-02-14T09:24:50;100120.33;;;12.65;100.00
62928;BME280;51070;52.236;-0.892;2024-02-14T09:27:16;100123.40;;;12.62;100.00
62928;BME280;51070;52.236;-0.892;2024-02-14T09:29:42;100127.68;;;12.59;100.00
62928;BME280;51070;52.236;-0.892;2024-02-14T09:32:07;100125.55;;;12.55;100.00
62928;BME280;51070;52.236;-0.892;2024-02-14T09:34:34;100127.77;;;12.53;100.00
62928;BME280;51070;52.236;-0.892;2024-02-14T09:36:59;100122.68;;;12.49;100.00
62928;BME280;51070;52.236;-0.892;2024-02-14T09:39:25;100122.59;;;12.44;100.00
62928;BME280;51070;52.236;-0.892;2024-02-14T09:41:52;100121.00;;;12.40;100.00
62928;BME280;51070;52.236;-0.892;2024-02-14T09:44:20;100117.12;;;12.37;100.00
62928;BME280;51070;52.236;-0.892;2024-02-14T09:46:47;100119.17;;;12.34;100.00
62928;BME280;51070;52.236;-0.892;2024-02-14T09:49:14;100119.30;;;12.32;100.00
62928;BME280;51070;52.236;-0.892;2024-02-14T09:51:42;100118.27;;;12.32;100.00
62928;BME280;51070;52.236;-0.892;2024-02-14T09:54:10;100120.16;;;12.31;100.00
62928;BME280;51070;52.236;-0.892;2024-02-14T09:56:36;100125.02;;;12.32;100.00
62928;BME280;51070;52.236;-0.892;2024-02-14T09:59:02;100130.45;;;12.36;100.00
62928;BME280;51070;52.236;-0.892;2024-02-14T10:01:28;100131.86;;;12.38;100.00
62928;BME280;51070;52.236;-0.892;2024-02-14T10:03:54;100125.67;;;12.40;100.00
62928;BME280;51070;52.236;-0.892;2024-02-14T10:06:20;100130.23;;;12.44;100.00
62928;BME280;51070;52.236;-0.892;2024-02-14T10:08:49;100122.83;;;12.47;100.00
62928;BME280;51070;52.236;-0.892;2024-02-14T10:11:18;100114.92;;;12.52;100.00
62928;BME280;51070;52.236;-0.892;2024-02-14T10:13:47;100111.35;;;12.56;100.00
62928;BME280;51070;52.236;-0.892;2024-02-14T10:16:14;100112.09;;;12.59;100.00
62928;BME280;51070;52.236;-0.892;2024-02-14T10:18:40;100119.09;;;12.64;100.00
62928;BME280;51070;52.236;-0.892;2024-02-14T10:21:06;100124.52;;;12.67;100.00
62928;BME280;51070;52.236;-0.892;2024-02-14T10:23:31;100129.92;;;12.70;100.00
62928;BME280;51070;52.236;-0.892;2024-02-14T10:25:58;100131.88;;;12.74;100.00
62928;BME280;51070;52.236;-0.892;2024-02-14T10:28:24;100134.85;;;12.75;100.00
62928;BME280;51070;52.236;-0.892;2024-02-14T10:30:50;100133.45;;;12.74;100.00
62928;BME280;51070;52.236;-0.892;2024-02-14T10:33:16;100138.46;;;12.73;100.00
62928;BME280;51070;52.236;-0.892;2024-02-14T10:35:42;100146.23;;;12.72;100.00
62928;BME280;51070;52.236;-0.892;2024-02-14T10:38:09;100142.12;;;12.74;100.00
62928;BME280;51070;52.236;-0.892;2024-02-14T10:40:38;100143.27;;;12.80;100.00
62928;BME280;51070;52.236;-0.892;2024-02-14T10:43:07;100140.47;;;12.93;100.00
62928;BME280;51070;52.236;-0.892;2024-02-14T10:45:35;100144.83;;;13.07;100.00
62928;BME280;51070;52.236;-0.892;2024-02-14T10:48:04;100140.95;;;13.14;100.00
62928;BME280;51070;52.236;-0.892;2024-02-14T10:50:33;100137.56;;;13.36;100.00
62928;BME280;51070;52.236;-0.892;2024-02-14T10:53:04;100135.59;;;13.61;100.00
62928;BME280;51070;52.236;-0.892;2024-02-14T10:55:33;100148.04;;;13.72;100.00
62928;BME280;51070;52.236;-0.892;2024-02-14T10:57:58;100138.72;;;13.75;100.00
62928;BME280;51070;52.236;-0.892;2024-02-14T11:00:24;100140.44;;;13.76;100.00
62928;BME280;51070;52.236;-0.892;2024-02-14T11:02:51;100146.88;;;13.95;100.00
62928;BME280;51070;52.236;-0.892;2024-02-14T11:05:19;100155.52;;;14.08;100.00
62928;BME280;51070;52.236;-0.892;2024-02-14T11:07:49;100158.50;;;14.12;100.00
62928;BME280;51070;52.236;-0.892;2024-02-14T11:10:19;100153.55;;;14.21;100.00
62928;BME280;51070;52.236;-0.892;2024-02-14T11:12:46;100142.58;;;14.19;100.00
62928;BME280;51070;52.236;-0.892;2024-02-14T11:15:23;100139.79;;;14.17;100.00
62928;BME280;51070;52.236;-0.892;2024-02-14T11:18:04;100145.72;;;14.40;100.00
62928;BME280;51070;52.236;-0.892;2024-02-14T11:20:34;100151.48;;;14.65;100.00
62928;BME280;51070;52.236;-0.892;2024-02-14T11:25:29;100149.31;;;15.16;100.00
62928;BME280;51070;52.236;-0.892;2024-02-14T11:27:56;100150.17;;;15.12;100.00
62928;BME280;51070;52.236;-0.892;2024-02-14T11:30:33;100154.11;;;15.01;100.00
62928;BME280;51070;52.236;-0.892;2024-02-14T11:33:20;100158.08;;;14.93;100.00
62928;BME280;51070;52.236;-0.892;2024-02-14T11:35:47;100159.09;;;14.88;100.00
62928;BME280;51070;52.236;-0.892;2024-02-14T11:38:15;100156.61;;;14.81;100.00
62928;BME280;51070;52.236;-0.892;2024-02-14T11:40:40;100155.86;;;14.71;100.00
62928;BME280;51070;52.236;-0.892;2024-02-14T11:43:13;100152.99;;;14.59;100.00
62928;BME280;51070;52.236;-0.892;2024-02-14T11:45:41;100153.16;;;14.56;100.00
62928;BME280;51070;52.236;-0.892;2024-02-14T11:48:11;100147.25;;;14.59;100.00
62928;BME280;51070;52.236;-0.892;2024-02-14T11:50:46;100151.27;;;14.61;100.00
62928;BME280;51070;52.236;-0.892;2024-02-14T11:53:15;100150.58;;;14.61;100.00
62928;BME280;51070;52.236;-0.892;2024-02-14T11:55:45;100155.61;;;14.60;100.00
62928;BME280;51070;52.236;-0.892;2024-02-14T11:58:13;100160.66;;;14.61;100.00
62928;BME280;51070;52.236;-0.892;2024-02-14T12:00:40;100154.75;;;14.61;100.00
62928;BME280;51070;52.236;-0.892;2024-02-14T12:03:07;100147.31;;;14.66;100.00
62928;BME280;51070;52.236;-0.892;2024-02-14T12:05:35;100149.94;;;14.70;100.00
62928;BME280;51070;52.236;-0.892;2024-02-14T12:08:04;100150.86;;;14.78;100.00
62928;BME280;51070;52.236;-0.892;2024-02-14T12:10:32;100146.90;;;14.85;100.00
62928;BME280;51070;52.236;-0.892;2024-02-14T12:12:58;100151.11;;;14.91;100.00
62928;BME280;51070;52.236;-0.892;2024-02-14T12:15:26;100152.31;;;14.91;100.00
62928;BME280;51070;52.236;-0.892;2024-02-14T12:17:54;100151.46;;;14.92;100.00
62928;BME280;51070;52.236;-0.892;2024-02-14T12:20:22;100148.88;;;14.97;100.00
62928;BME280;51070;52.236;-0.892;2024-02-14T12:22:51;100145.27;;;15.04;100.00
62928;BME280;51070;52.236;-0.892;2024-02-14T12:25:16;100146.34;;;15.11;100.00
62928;BME280;51070;52.236;-0.892;2024-02-14T12:27:42;100154.91;;;15.20;100.00
62928;BME280;51070;52.236;-0.892;2024-02-14T12:30:08;100155.96;;;15.24;100.00